VK4VP-5 Buderim QLD AU current weather conditions

sailwx.info

Air temperature 16.1° C
Dewpoint 13.4° C

Last reported at 2015-May-25 08:44 UTC.
Time now 2015-May-25 09:32 UTC

Location: S 26°42' E 153°05'.
View on Google Maps.

See reports from other nearby stations

  
Tides and Currents Weather Stations Pressure Air Temp Water Temp Dewpoint Dewpoint Depression Visibility Wind Speed Wind Dir Waves Ship Positions
date/time (UTC)wind fromknots sea level pressurealtimeterstation pressurevisibilityair tempwater tempwave heightnotes
2015-May-25 08:44 16.1
2015-May-25 08:34 235 16.1
2015-May-25 08:24 235 16.1
2015-May-25 08:14 234 16.7
2015-May-25 08:04 16.7
2015-May-25 07:54 17.2
2015-May-25 07:44 17.8
2015-May-25 07:34 18.3
2015-May-25 07:24 18.3
2015-May-25 07:14 18.9
2015-May-25 07:04 19.4
2015-May-25 06:54 19.4
2015-May-25 06:44 181 20.0
2015-May-25 06:34 178 20.6
2015-May-25 06:24 169 20.6
2015-May-25 06:14 165 0 gusting 6 20.6
2015-May-25 06:04 141 1 gusting 8 21.1
2015-May-25 05:54 150 2 gusting 10 21.1
2015-May-25 05:44 175 3 gusting 8 21.1
2015-May-25 05:34 175 1 gusting 7 21.1
2015-May-25 05:24 170 3 gusting 7 21.1
2015-May-25 05:14 176 2 gusting 8 21.1
2015-May-25 05:04 156 3 gusting 10 21.1
2015-May-25 04:54 155 5 gusting 10 21.1
2015-May-25 04:44 170 4 gusting 10 21.1
2015-May-25 04:34 158 5 gusting 10 21.1
2015-May-25 04:24 150 3 gusting 9 20.6
2015-May-25 04:14 150 3 gusting 9 21.1
2015-May-25 04:04 153 5 gusting 14 21.1
2015-May-25 03:54 167 4 gusting 9 20.6
2015-May-25 03:44 171 5 gusting 14 21.1
2015-May-25 03:34 161 5 gusting 12 21.7
2015-May-25 03:24 173 4 gusting 9 21.7
2015-May-25 03:14 170 3 gusting 8 21.7
2015-May-25 03:04 163 5 gusting 12 21.1
2015-May-25 02:54 167 4 gusting 13 21.1
2015-May-25 02:44 162 4 gusting 10 21.7
2015-May-25 02:34 190 6 gusting 12 21.1
2015-May-25 02:24 159 4 gusting 11 21.1
2015-May-25 02:14 153 5 gusting 11 21.1
2015-May-25 02:04 169 6 gusting 13 21.1
2015-May-25 01:54 174 3 gusting 11 21.7
2015-May-25 01:44 163 4 gusting 12 21.7
2015-May-25 01:34 181 4 gusting 16 21.7
2015-May-25 01:24 167 3 gusting 12 21.7
2015-May-25 01:14 170 4 gusting 14 21.1
2015-May-25 01:04 173 3 gusting 11 21.1
2015-May-25 00:54 176 4 gusting 11 21.1
2015-May-25 00:44 184 5 gusting 13 20.6
2015-May-25 00:34 201 4 gusting 9 20.6
2015-May-25 00:24 193 4 gusting 10 20.0
2015-May-25 00:14 197 3 gusting 8 20.0
2015-May-25 00:04 203 5 gusting 11 19.4
2015-May-24 23:54 199 4 gusting 10 19.4
2015-May-24 23:44 190 4 gusting 10 18.9
2015-May-24 23:34 204 6 gusting 11 18.3
2015-May-24 23:24 197 5 gusting 12 18.3
2015-May-24 23:14 198 4 gusting 11 18.3
2015-May-24 23:04 205 3 gusting 11 17.8
2015-May-24 22:54 213 4 gusting 11 17.8
2015-May-24 22:44 218 5 gusting 9 17.2
2015-May-24 22:34 216 3 gusting 9 17.2
2015-May-24 22:24 219 3 gusting 8 16.7
2015-May-24 22:14 202 4 gusting 9 16.7
2015-May-24 22:04 213 3 gusting 8 16.1
2015-May-24 21:54 212 3 gusting 8 15.6
2015-May-24 21:44 209 2 gusting 8 15.6
2015-May-24 21:34 206 2 gusting 10 15.6
2015-May-24 21:24 210 2 gusting 8 15.0
2015-May-24 21:14 208 2 gusting 7 15.0
2015-May-24 21:04 208 2 gusting 6 14.4
2015-May-24 20:54 208 1 gusting 5 14.4
2015-May-24 20:44 222 2 gusting 6 14.4
2015-May-24 20:34 225 1 gusting 6 14.4
2015-May-24 20:24 225 1 gusting 6 14.4
2015-May-24 20:14 224 2 gusting 7 14.4
2015-May-24 20:04 218 2 gusting 8 14.4
2015-May-24 19:54 216 1 gusting 8 15.0
2015-May-24 19:44 219 3 gusting 9 15.0
2015-May-24 19:34 223 2 gusting 6 15.0
2015-May-24 19:24 223 2 gusting 6 15.0
2015-May-24 19:14 223 1 gusting 6 15.0
2015-May-24 19:04 223 2 gusting 7 15.0
2015-May-24 18:54 223 2 gusting 6 15.0
2015-May-24 18:44 223 2 gusting 6 15.0
2015-May-24 18:34 223 2 gusting 7 15.0
2015-May-24 18:24 223 2 gusting 7 15.0
2015-May-24 18:14 223 2 gusting 6 15.0
2015-May-24 18:04 223 1 gusting 7 15.0
2015-May-24 17:54 223 1 gusting 5 15.0
2015-May-24 17:44 223 1 gusting 5 15.0
2015-May-24 17:34 223 1 gusting 3 15.0
2015-May-24 17:24 223 2 gusting 8 15.0
2015-May-24 17:14 223 1 gusting 6 15.0
2015-May-24 17:04 222 1 gusting 5 15.0
2015-May-24 16:54 223 0 gusting 2 15.0
2015-May-24 16:44 222 1 gusting 6 15.0
2015-May-24 16:34 222 2 gusting 7 15.6
2015-May-24 16:24 222 1 gusting 6 15.6
2015-May-24 16:14 223 2 gusting 8 15.6
2015-May-24 16:04 222 1 gusting 6 15.6
2015-May-24 15:54 223 1 gusting 8 15.6
2015-May-24 15:44 223 1 gusting 6 15.6
2015-May-24 15:34 223 2 gusting 8 15.6
2015-May-24 15:24 220 2 gusting 8 15.6
2015-May-24 15:14 219 1 gusting 5 15.6
2015-May-24 15:04 219 1 gusting 5 15.6
2015-May-24 14:54 219 2 gusting 7 15.6
2015-May-24 14:44 219 2 gusting 6 15.6
2015-May-24 14:34 219 1 gusting 6 15.6
2015-May-24 14:24 218 1 gusting 6 15.6
2015-May-24 14:14 217 1 gusting 6 15.6
2015-May-24 14:04 217 1 gusting 5 15.6
2015-May-24 13:54 217 1 gusting 5 15.6
2015-May-24 13:44 217 1 gusting 6 15.6
2015-May-24 13:34 217 1 gusting 6 15.6
2015-May-24 13:24 217 1 gusting 5 16.1
2015-May-24 13:14 217 0 gusting 3 16.1
2015-May-24 13:04 217 0 gusting 5 16.1
2015-May-24 12:54 217 0 gusting 5 16.7
2015-May-24 12:44 218 1 gusting 3 16.7
2015-May-24 12:34 217 0 gusting 3 16.7
2015-May-24 12:24 217 1 gusting 5 16.7
2015-May-24 12:14 217 1 gusting 5 17.2
2015-May-24 12:04 217 1 gusting 5 17.2
2015-May-24 11:54 219 1 gusting 7 17.2
2015-May-24 11:44 219 1 gusting 7 17.2
2015-May-24 11:34 217 0 gusting 3 16.7
2015-May-24 11:24 217 0 gusting 6 16.7
2015-May-24 11:14 217 1 gusting 6 16.7
2015-May-24 11:04 217 1 gusting 6 16.7
2015-May-24 10:54 217 0 gusting 3 16.7
2015-May-24 10:44 217 0 gusting 6 16.7
2015-May-24 10:34 217 0 gusting 3 16.7
2015-May-24 10:24 217 0 gusting 3 16.7
2015-May-24 10:14 217 1 gusting 6 17.2
2015-May-24 10:04 217 1 gusting 6 17.2
2015-May-24 09:54 217 0 gusting 3 16.7
2015-May-24 09:44 217 1 gusting 5 17.2
2015-May-24 09:34 217 1 gusting 5 17.2
2015-May-24 09:24 217 0 gusting 3 17.2
2015-May-24 09:14 217 0 gusting 3 17.2
2015-May-24 09:04 217 1 gusting 7 17.8
2015-May-24 08:54 217 0 gusting 3 17.8
2015-May-24 08:44 217 1 gusting 6 17.8
2015-May-24 08:34 218 2 gusting 7 17.8
2015-May-24 08:24 220 2 gusting 8 18.3
2015-May-24 08:14 200 3 gusting 8 18.3
2015-May-24 08:04 189 3 gusting 10 18.9
2015-May-24 07:54 184 3 gusting 9 18.9
2015-May-24 07:44 176 3 gusting 12 18.9
2015-May-24 07:34 185 1 gusting 10 18.9
2015-May-24 07:24 181 3 gusting 8 18.9
2015-May-24 07:14 179 3 gusting 8 18.9
2015-May-24 07:04 185 1 gusting 7 18.9
2015-May-24 06:54 184 1 gusting 6 19.4
2015-May-24 06:44 179 2 gusting 6 19.4
2015-May-24 06:34 184 2 gusting 8 19.4
2015-May-24 06:24 190 1 gusting 7 19.4
2015-May-24 06:14 181 6 gusting 13 20.0
2015-May-24 06:04 181 4 gusting 13 20.0
2015-May-24 05:54 173 5 gusting 14 20.6
2015-May-24 05:44 161 5 gusting 13 20.6
2015-May-24 05:34 161 4 gusting 10 20.6
2015-May-24 05:24 178 6 gusting 12 20.6
2015-May-24 05:14 170 6 gusting 13 20.6
2015-May-24 05:04 176 3 gusting 13 21.1
2015-May-24 04:54 183 6 gusting 15 20.6
2015-May-24 04:44 185 6 gusting 16 20.6
2015-May-24 04:34 177 6 gusting 13 20.6
2015-May-24 04:24 183 6 gusting 13 20.6
2015-May-24 04:14 186 4 gusting 9 20.6
2015-May-24 04:04 179 4 gusting 10 20.6
2015-May-24 03:54 181 6 gusting 15 20.6
2015-May-24 03:44 181 3 gusting 13 20.6
2015-May-24 03:34 175 5 gusting 15 20.6
2015-May-24 03:24 179 5 gusting 13 20.6
2015-May-24 03:14 171 3 gusting 9 20.6
2015-May-24 03:04 183 6 gusting 17 20.6
2015-May-24 02:54 188 7 gusting 14 21.1
2015-May-24 02:44 168 6 gusting 16 21.1
2015-May-24 02:34 167 6 gusting 14 21.1
2015-May-24 02:24 177 7 gusting 18 21.1
2015-May-24 02:14 177 6 gusting 15 21.1
2015-May-24 02:04 178 6 gusting 14 21.1
2015-May-24 01:54 170 6 gusting 12 20.6
2015-May-24 01:44 159 6 gusting 14 20.6
2015-May-24 01:34 171 7 gusting 15 20.6
2015-May-24 01:24 172 6 gusting 12 20.6
2015-May-24 01:14 165 6 gusting 17 20.6
2015-May-24 01:04 168 5 gusting 12 20.6
2015-May-24 00:54 183 6 gusting 13 20.6
2015-May-24 00:44 189 5 gusting 17 20.6
2015-May-24 00:34 184 7 gusting 14 20.0
2015-May-24 00:24 193 6 gusting 15 20.0
2015-May-24 00:14 190 6 gusting 13 19.4
2015-May-24 00:04 193 4 gusting 14 19.4
2015-May-23 23:54 198 6 gusting 13 18.9
2015-May-23 23:44 192 4 gusting 10 18.9
2015-May-23 23:34 192 6 gusting 12 18.3
2015-May-23 23:24 198 6 gusting 17 18.3
2015-May-23 23:14 213 4 gusting 12 17.8
2015-May-23 23:04 197 3 gusting 8 17.2
2015-May-23 22:54 210 5 gusting 11 17.2
2015-May-23 22:44 206 4 gusting 9 16.7
2015-May-23 22:34 207 4 gusting 8 16.7
2015-May-23 22:24 208 3 gusting 8 16.7
2015-May-23 22:14 210 3 gusting 9 16.1
2015-May-23 22:04 205 3 gusting 10 16.1
2015-May-23 21:54 207 4 gusting 10 16.1
2015-May-23 21:44 196 3 gusting 13 16.1
2015-May-23 21:34 217 2 gusting 8 16.1
2015-May-23 21:24 217 2 gusting 8 15.6
2015-May-23 21:14 219 2 gusting 7 15.6
2015-May-23 21:04 217 3 gusting 7 15.0
2015-May-23 20:54 213 2 gusting 8 15.0
2015-May-23 20:44 212 1 gusting 5 15.0
2015-May-23 20:34 212 1 gusting 5 15.0
2015-May-23 20:24 211 1 gusting 6 15.0
2015-May-23 20:14 210 1 gusting 3 15.0
2015-May-23 20:04 209 1 gusting 8 15.0
2015-May-23 19:54 208 1 gusting 7 15.0
2015-May-23 19:44 207 1 gusting 6 15.0
2015-May-23 19:34 201 2 gusting 8 15.0
2015-May-23 19:24 193 1 gusting 5 15.0
2015-May-23 19:14 193 0 gusting 2 15.0
2015-May-23 19:04 193 0 gusting 2 15.0
2015-May-23 18:54 193 0 gusting 3 15.0
2015-May-23 18:44 193 2 gusting 5 15.0
2015-May-23 18:34 193 1 gusting 6 15.0
2015-May-23 18:24 193 1 gusting 3 15.0
2015-May-23 18:14 193 1 gusting 3 15.0
2015-May-23 18:04 193 0 gusting 5 15.0
2015-May-23 17:54 193 2 gusting 7 15.0
2015-May-23 17:44 195 3 gusting 8 15.0
2015-May-23 17:34 195 3 gusting 10 15.0
2015-May-23 17:24 195 5 gusting 11 15.6
2015-May-23 17:10 216 2 gusting 8 15.6
2015-May-23 17:00 216 2 gusting 8 15.0
2015-May-23 16:50 215 3 gusting 9 15.0
2015-May-23 16:40 221 3 gusting 8 15.0
2015-May-23 16:30 221 3 gusting 8 15.0
2015-May-23 16:20 214 2 gusting 7 15.0
2015-May-23 16:10 211 3 gusting 8 15.0
2015-May-23 16:00 214 3 gusting 8 15.0
2015-May-23 15:50 216 4 gusting 9 15.0
2015-May-23 15:40 215 3 gusting 8 15.0
2015-May-23 15:30 215 2 gusting 8 15.0
2015-May-23 15:20 215 2 gusting 7 14.4
2015-May-23 15:10 214 1 gusting 5 14.4
2015-May-23 15:00 215 1 gusting 6 15.0
2015-May-23 14:50 215 0 gusting 6 15.0
2015-May-23 14:40 215 0 gusting 2 15.0
2015-May-23 14:30 215 0 gusting 3 15.0
2015-May-23 14:20 214 1 gusting 6 15.0
2015-May-23 14:10 215 0 gusting 3 15.0
2015-May-23 14:00 214 2 gusting 8 15.0
2015-May-23 13:50 214 1 gusting 6 15.0
2015-May-23 13:40 215 1 gusting 6 15.0
2015-May-23 13:30 214 1 gusting 6 15.0
2015-May-23 13:20 214 1 gusting 7 15.0
2015-May-23 13:10 211 2 gusting 8 15.6
2015-May-23 13:00 211 2 gusting 7 15.6
2015-May-23 12:50 212 2 gusting 7 15.6
2015-May-23 12:40 211 2 gusting 8 15.6
2015-May-23 12:30 212 1 gusting 6 15.6
2015-May-23 12:20 211 1 gusting 7 15.6
2015-May-23 12:10 209 2 gusting 9 16.1
2015-May-23 12:00 213 2 gusting 9 16.1
2015-May-23 11:50 215 2 gusting 8 16.1
2015-May-23 11:40 219 2 gusting 9 16.1
2015-May-23 11:30 220 3 gusting 8 16.1
2015-May-23 11:20 223 3 gusting 8 16.7
2015-May-23 11:10 225 3 gusting 9 16.7
2015-May-23 11:00 222 3 gusting 9 16.7
2015-May-23 10:50 217 2 gusting 8 16.7
2015-May-23 10:40 213 3 gusting 9 17.2
2015-May-23 10:30 205 2 gusting 6 17.2
2015-May-23 10:20 201 2 gusting 8 17.2
2015-May-23 10:10 204 3 gusting 8 17.2
2015-May-23 10:00 209 3 gusting 8 17.2
2015-May-23 09:50 202 2 gusting 8 17.2
2015-May-23 09:40 200 1 gusting 6 17.2
2015-May-23 09:30 198 2 gusting 7 17.2
2015-May-23 09:20 195 2 gusting 7 17.8
2015-May-23 09:10 189 2 gusting 8 17.8
2015-May-23 09:00 185 3 gusting 8 18.3